Time;durP1;ratioP1;P1;durP2;ratioP2;P2;SDS_P1;SDS_P2;PMS_P1;PMS_P2;Temp;Humidity;BMP_temperature;BMP_pressure;BME280_temperature;BME280_humidity;BME280_pressure;Samples;Min_cycle;Max_cycle;Signal;HPM_P1;HPM_P2
2022/03/11 00:02:21;;;;;;;;;;;4.40;99.90;;;;;;5109355;28;20297;-58
2022/03/11 00:04:47;;;;;;;;;;;4.30;99.90;;;;;;5099759;28;19924;-58
2022/03/11 00:07:13;;;;;;;;;;;4.30;99.90;;;;;;5093379;28;19924;-58
2022/03/11 00:09:38;;;;;;;;;;;4.30;99.90;;;;;;5099784;28;19950;-59
2022/03/11 00:12:06;;;;;;;;;;;4.20;99.90;;;;;;5100633;28;19977;-59
2022/03/11 00:14:31;;;;;;;;;;;4.10;99.90;;;;;;5094728;28;19974;-58
2022/03/11 00:16:57;;;;;;;;;;;4.10;99.90;;;;;;5092144;28;20374;-58
2022/03/11 00:19:24;;;;;;;;;;;4.00;99.90;;;;;;5105402;28;20296;-58
2022/03/11 00:21:50;;;;;;;;;;;4.00;99.90;;;;;;5113150;28;20015;-58
2022/03/11 00:24:16;;;;;;;;;;;4.00;99.90;;;;;;5096845;28;20420;-58
2022/03/11 00:26:42;;;;;;;;;;;3.90;99.90;;;;;;5097708;28;19924;-58
2022/03/11 00:29:07;;;;;;;;;;;3.90;99.90;;;;;;5096758;28;20077;-58
2022/03/11 00:31:33;;;;;;;;;;;3.90;99.90;;;;;;5098815;28;19923;-58
2022/03/11 00:33:59;;;;;;;;;;;3.90;99.90;;;;;;5116576;28;19928;-58
2022/03/11 00:36:25;;;;;;;;;;;3.90;99.90;;;;;;5115979;28;19924;-58
2022/03/11 00:38:50;;;;;;;;;;;3.90;99.90;;;;;;5117135;28;20018;-58
2022/03/11 00:41:16;;;;;;;;;;;3.90;99.90;;;;;;5116542;28;19923;-58
2022/03/11 00:43:42;;;;;;;;;;;3.90;99.90;;;;;;5097708;28;19963;-59
2022/03/11 00:46:08;;;;;;;;;;;3.90;99.90;;;;;;5097971;28;19927;-58
2022/03/11 00:48:35;;;;;;;;;;;3.90;99.90;;;;;;5116190;28;19931;-58
2022/03/11 00:51:01;;;;;;;;;;;3.90;99.90;;;;;;5116029;28;19976;-58
2022/03/11 00:53:27;;;;;;;;;;;3.90;99.90;;;;;;5098242;28;20014;-58
2022/03/11 00:55:54;;;;;;;;;;;3.90;99.90;;;;;;5077646;28;19935;-58
2022/03/11 00:58:20;;;;;;;;;;;3.90;99.90;;;;;;5095879;28;19947;-58
2022/03/11 01:00:46;;;;;;;;;;;3.90;99.90;;;;;;5096283;28;20516;-58
2022/03/11 01:03:11;;;;;;;;;;;3.90;99.90;;;;;;5103374;28;19924;-58
2022/03/11 01:05:55;;;;;;;;;;;3.80;99.90;;;;;;5115718;28;19934;-58
2022/03/11 01:08:40;;;;;;;;;;;3.80;99.90;;;;;;5116197;28;20309;-58
2022/03/11 01:11:08;;;;;;;;;;;3.80;99.90;;;;;;5115086;28;19923;-58
2022/03/11 01:13:34;;;;;;;;;;;3.80;99.90;;;;;;5116303;28;20019;-58
2022/03/11 01:16:23;;;;;;;;;;;3.80;99.90;;;;;;5116410;28;20386;-58
2022/03/11 01:19:10;;;;;;;;;;;3.80;99.90;;;;;;5096838;28;20389;-58
2022/03/11 01:21:36;;;;;;;;;;;3.70;99.90;;;;;;5115724;28;19923;-58
2022/03/11 01:24:01;;;;;;;;;;;3.70;99.90;;;;;;5116189;28;20281;-58
2022/03/11 01:26:27;;;;;;;;;;;3.70;99.90;;;;;;5096496;28;19924;-58
2022/03/11 01:28:53;;;;;;;;;;;3.60;99.90;;;;;;5097285;28;19931;-58
2022/03/11 01:31:18;;;;;;;;;;;3.60;99.90;;;;;;5115143;28;19931;-58
2022/03/11 01:33:45;;;;;;;;;;;3.60;99.90;;;;;;5115155;28;19924;-58
2022/03/11 01:36:11;;;;;;;;;;;3.60;99.90;;;;;;5115762;28;19924;-58
2022/03/11 01:38:37;;;;;;;;;;;3.60;99.90;;;;;;5097083;28;20369;-58
2022/03/11 01:41:03;;;;;;;;;;;3.60;99.90;;;;;;5096525;28;20386;-58
2022/03/11 01:43:29;;;;;;;;;;;3.60;99.90;;;;;;5115675;28;19967;-58
2022/03/11 01:45:55;;;;;;;;;;;3.60;99.90;;;;;;5115722;28;20263;-58
2022/03/11 01:48:21;;;;;;;;;;;3.60;99.90;;;;;;5095498;28;20277;-58
2022/03/11 01:50:47;;;;;;;;;;;3.60;99.90;;;;;;5097140;28;19923;-58
2022/03/11 01:53:13;;;;;;;;;;;3.60;99.90;;;;;;5114845;28;19968;-58
2022/03/11 01:55:40;;;;;;;;;;;3.60;99.90;;;;;;5114941;28;20632;-58
2022/03/11 01:58:06;;;;;;;;;;;3.60;99.90;;;;;;5115634;28;20014;-58
2022/03/11 02:00:35;;;;;;;;;;;3.60;99.90;;;;;;5114901;28;19920;-58
2022/03/11 02:03:01;;;;;;;;;;;3.60;99.90;;;;;;5114873;28;19947;-58
2022/03/11 02:05:28;;;;;;;;;;;3.60;99.90;;;;;;5114936;28;20381;-58
2022/03/11 02:07:53;;;;;;;;;;;3.60;99.90;;;;;;5114200;28;19923;-58
2022/03/11 02:10:19;;;;;;;;;;;3.70;99.90;;;;;;5114981;28;19924;-58
2022/03/11 02:12:45;;;;;;;;;;;3.70;99.90;;;;;;5096757;28;19931;-59
2022/03/11 02:15:10;;;;;;;;;;;3.60;99.90;;;;;;5095496;28;20396;-58
2022/03/11 02:17:36;;;;;;;;;;;3.70;99.90;;;;;;5115019;28;19932;-58
2022/03/11 02:20:03;;;;;;;;;;;3.60;99.90;;;;;;5115042;28;19928;-58
2022/03/11 02:22:31;;;;;;;;;;;3.60;99.90;;;;;;5095496;28;19967;-58
2022/03/11 02:24:56;;;;;;;;;;;3.70;99.90;;;;;;5114431;28;20382;-58
2022/03/11 02:27:23;;;;;;;;;;;3.60;99.90;;;;;;5115131;28;19931;-58
2022/03/11 02:29:48;;;;;;;;;;;3.60;99.90;;;;;;5113990;28;20007;-58
2022/03/11 02:32:14;;;;;;;;;;;3.50;99.90;;;;;;5107568;28;20461;-58
2022/03/11 02:34:40;;;;;;;;;;;3.50;99.90;;;;;;5076013;28;19931;-58
2022/03/11 02:37:06;;;;;;;;;;;3.50;99.90;;;;;;5093395;28;19928;-58
2022/03/11 02:39:31;;;;;;;;;;;3.50;99.90;;;;;;5092545;28;19928;-58
2022/03/11 02:41:58;;;;;;;;;;;3.40;99.90;;;;;;5113990;28;19927;-58
2022/03/11 02:44:24;;;;;;;;;;;3.40;99.90;;;;;;5113653;28;19924;-58
2022/03/11 02:46:50;;;;;;;;;;;3.40;99.90;;;;;;5114238;28;20389;-58
2022/03/11 02:49:16;;;;;;;;;;;3.40;99.90;;;;;;5105631;28;20019;-58
2022/03/11 02:51:42;;;;;;;;;;;3.40;99.90;;;;;;5113787;28;19934;-58
2022/03/11 02:54:07;;;;;;;;;;;3.30;99.90;;;;;;5091761;28;19930;-58
2022/03/11 02:56:33;;;;;;;;;;;3.30;99.90;;;;;;5074894;28;20510;-58
2022/03/11 02:58:59;;;;;;;;;;;3.30;99.90;;;;;;5089962;28;19928;-57
2022/03/11 03:01:24;;;;;;;;;;;3.20;99.90;;;;;;5114322;28;19924;-58
2022/03/11 03:03:50;;;;;;;;;;;3.20;99.90;;;;;;5113592;28;20264;-58
2022/03/11 03:06:16;;;;;;;;;;;3.20;99.90;;;;;;5095227;28;20458;-58
2022/03/11 03:08:41;;;;;;;;;;;3.20;99.90;;;;;;5113890;28;19946;-58
2022/03/11 03:11:07;;;;;;;;;;;3.10;99.90;;;;;;5094423;28;19977;-58
2022/03/11 03:13:33;;;;;;;;;;;3.10;99.90;;;;;;5114342;28;20359;-58
2022/03/11 03:15:58;;;;;;;;;;;3.00;99.90;;;;;;5113584;28;19923;-58
2022/03/11 03:18:24;;;;;;;;;;;3.00;99.90;;;;;;5113150;28;20014;-58
2022/03/11 03:20:50;;;;;;;;;;;3.00;99.90;;;;;;5113658;28;19928;-58
2022/03/11 03:23:16;;;;;;;;;;;2.90;99.90;;;;;;5114125;28;20421;-57
2022/03/11 03:25:41;;;;;;;;;;;2.90;99.90;;;;;;5112419;28;19996;-58
2022/03/11 03:28:08;;;;;;;;;;;2.90;99.90;;;;;;5113941;28;19951;-58
2022/03/11 03:30:34;;;;;;;;;;;2.90;99.90;;;;;;5113718;28;19923;-58
2022/03/11 03:33:00;;;;;;;;;;;2.90;99.90;;;;;;5112496;28;19931;-58
2022/03/11 03:35:25;;;;;;;;;;;2.90;99.90;;;;;;5095383;28;19935;-58
2022/03/11 03:37:51;;;;;;;;;;;2.90;99.90;;;;;;5113736;28;19920;-58
2022/03/11 03:40:18;;;;;;;;;;;2.80;99.90;;;;;;5094627;28;19928;-58
2022/03/11 03:42:44;;;;;;;;;;;2.80;99.90;;;;;;5113487;28;19928;-58
2022/03/11 03:45:10;;;;;;;;;;;2.80;99.90;;;;;;5095323;28;19924;-57
2022/03/11 03:47:35;;;;;;;;;;;2.70;99.90;;;;;;5094461;28;20293;-58
2022/03/11 03:50:01;;;;;;;;;;;2.70;99.90;;;;;;5113533;28;20395;-58
2022/03/11 03:52:28;;;;;;;;;;;2.60;99.90;;;;;;5113409;28;19924;-58
2022/03/11 03:54:54;;;;;;;;;;;2.70;99.90;;;;;;5114637;28;19927;-58
2022/03/11 03:57:20;;;;;;;;;;;2.60;99.90;;;;;;5118332;28;19924;-57
2022/03/11 03:59:45;;;;;;;;;;;2.60;99.90;;;;;;5098242;28;19927;-58
2022/03/11 04:02:12;;;;;;;;;;;2.60;99.90;;;;;;5098990;28;19985;-58
2022/03/11 04:04:38;;;;;;;;;;;2.60;99.90;;;;;;5099781;28;20031;-58
2022/03/11 04:07:03;;;;;;;;;;;2.90;99.90;;;;;;5078361;28;19924;-58
2022/03/11 04:09:29;;;;;;;;;;;3.10;99.90;;;;;;5103389;28;19924;-58
2022/03/11 04:11:54;;;;;;;;;;;2.50;99.90;;;;;;5097032;28;19935;-58
2022/03/11 04:14:20;;;;;;;;;;;2.40;99.90;;;;;;5096494;28;19925;-58
2022/03/11 04:16:46;;;;;;;;;;;2.60;99.90;;;;;;5096593;28;19924;-57
2022/03/11 04:19:11;;;;;;;;;;;2.40;99.90;;;;;;5097607;28;19928;-58
2022/03/11 04:21:37;;;;;;;;;;;2.20;99.90;;;;;;5116516;28;19924;-58
2022/03/11 04:24:04;;;;;;;;;;;2.40;99.90;;;;;;5117276;28;19931;-59
2022/03/11 04:26:30;;;;;;;;;;;2.30;99.90;;;;;;5081776;28;20014;-59
2022/03/11 04:28:55;;;;;;;;;;;2.30;99.90;;;;;;5116303;28;20006;-59
2022/03/11 04:31:22;;;;;;;;;;;2.30;99.90;;;;;;5098506;28;19930;-59
2022/03/11 04:33:47;;;;;;;;;;;2.20;99.90;;;;;;5117313;28;19928;-59
2022/03/11 04:36:13;;;;;;;;;;;2.20;99.90;;;;;;5115941;28;19946;-59
2022/03/11 04:38:39;;;;;;;;;;;2.10;99.90;;;;;;5116883;28;19924;-59
2022/03/11 04:41:05;;;;;;;;;;;2.10;99.90;;;;;;5098910;28;19942;-59
2022/03/11 04:43:32;;;;;;;;;;;2.10;99.90;;;;;;5115989;28;19923;-59
2022/03/11 04:45:58;;;;;;;;;;;2.00;99.90;;;;;;5116296;28;20396;-59
2022/03/11 04:48:23;;;;;;;;;;;2.00;99.90;;;;;;5116521;28;20010;-59
2022/03/11 04:50:49;;;;;;;;;;;2.10;99.90;;;;;;5116098;28;19923;-59
2022/03/11 04:53:15;;;;;;;;;;;1.90;99.90;;;;;;5116265;28;19988;-59
2022/03/11 04:55:40;;;;;;;;;;;1.90;99.90;;;;;;5116752;28;20323;-59
2022/03/11 04:58:06;;;;;;;;;;;1.80;99.90;;;;;;5116147;28;19931;-59
2022/03/11 05:00:31;;;;;;;;;;;1.80;99.90;;;;;;5116365;28;19923;-59
2022/03/11 05:02:58;;;;;;;;;;;1.70;99.90;;;;;;5116203;28;19923;-59
2022/03/11 05:05:25;;;;;;;;;;;1.70;99.90;;;;;;5097510;28;19931;-59
2022/03/11 05:07:51;;;;;;;;;;;1.80;99.90;;;;;;5115936;28;19924;-59
2022/03/11 05:10:17;;;;;;;;;;;1.70;99.90;;;;;;5094111;28;19925;-58
2022/03/11 05:12:43;;;;;;;;;;;1.60;99.90;;;;;;5097813;28;20036;-59
2022/03/11 05:15:09;;;;;;;;;;;1.70;99.90;;;;;;5115763;28;19931;-59
2022/03/11 05:17:35;;;;;;;;;;;1.60;99.90;;;;;;5115570;28;20014;-59
2022/03/11 05:20:02;;;;;;;;;;;1.60;99.90;;;;;;5115878;28;19931;-59
2022/03/11 05:22:27;;;;;;;;;;;1.50;99.90;;;;;;5115875;28;19924;-59
2022/03/11 05:24:53;;;;;;;;;;;1.50;99.90;;;;;;5096866;28;20396;-59
2022/03/11 05:27:19;;;;;;;;;;;1.50;99.90;;;;;;5098012;28;19931;-59
2022/03/11 05:29:44;;;;;;;;;;;1.50;99.90;;;;;;5115053;28;19924;-59
2022/03/11 05:32:11;;;;;;;;;;;1.50;99.90;;;;;;5096772;28;19928;-59
2022/03/11 05:34:39;;;;;;;;;;;1.40;99.90;;;;;;5116043;28;19923;-59
2022/03/11 05:37:06;;;;;;;;;;;1.40;99.90;;;;;;5097184;28;20455;-59
2022/03/11 05:39:31;;;;;;;;;;;1.40;99.90;;;;;;5115171;28;19924;-59
2022/03/11 05:41:57;;;;;;;;;;;1.40;99.90;;;;;;5116027;28;19939;-59
2022/03/11 05:44:23;;;;;;;;;;;1.40;99.90;;;;;;5115108;28;20476;-59
2022/03/11 05:46:52;;;;;;;;;;;1.40;99.90;;;;;;5096566;28;19923;-59
2022/03/11 05:49:18;;;;;;;;;;;1.30;99.90;;;;;;5115608;28;19930;-59
2022/03/11 05:51:43;;;;;;;;;;;1.30;99.90;;;;;;5113986;28;20289;-59
2022/03/11 05:54:09;;;;;;;;;;;1.30;99.90;;;;;;5115014;28;19931;-59
2022/03/11 05:56:35;;;;;;;;;;;1.30;99.90;;;;;;5097035;28;20286;-59
2022/03/11 05:59:01;;;;;;;;;;;1.30;99.90;;;;;;5115397;28;20398;-59
2022/03/11 06:01:26;;;;;;;;;;;1.30;99.90;;;;;;5114676;28;20435;-59
2022/03/11 06:03:52;;;;;;;;;;;1.30;99.90;;;;;;5114839;28;20358;-59
2022/03/11 06:06:18;;;;;;;;;;;1.30;99.90;;;;;;5096803;28;19924;-59
2022/03/11 06:08:43;;;;;;;;;;;0.70;99.90;;;;;;5114573;28;19937;-59
2022/03/11 06:11:09;;;;;;;;;;;1.30;99.90;;;;;;5115074;28;20385;-59
2022/03/11 06:13:35;;;;;;;;;;;1.30;99.90;;;;;;5114083;28;19928;-59
2022/03/11 06:16:01;;;;;;;;;;;1.30;99.90;;;;;;5114840;28;20008;-59
2022/03/11 06:18:28;;;;;;;;;;;1.30;99.90;;;;;;5114656;28;20286;-59
2022/03/11 06:20:53;;;;;;;;;;;1.30;99.90;;;;;;5113877;28;19923;-59
2022/03/11 06:23:19;;;;;;;;;;;1.30;99.90;;;;;;5114772;28;20400;-59
2022/03/11 06:25:45;;;;;;;;;;;1.40;99.90;;;;;;5096400;28;19927;-58
2022/03/11 06:28:10;;;;;;;;;;;1.40;99.90;;;;;;5103078;28;19932;-59
2022/03/11 06:30:36;;;;;;;;;;;1.40;99.90;;;;;;5102714;28;20007;-59
2022/03/11 06:33:02;;;;;;;;;;;1.50;99.90;;;;;;5105184;28;19955;-59
2022/03/11 06:35:27;;;;;;;;;;;1.50;99.90;;;;;;5093456;28;20400;-59
2022/03/11 06:37:54;;;;;;;;;;;1.60;99.90;;;;;;5094226;28;19970;-58
2022/03/11 06:40:20;;;;;;;;;;;1.60;99.90;;;;;;5110023;28;20401;-59
2022/03/11 06:42:46;;;;;;;;;;;1.70;99.90;;;;;;5113528;28;19978;-59
2022/03/11 06:45:12;;;;;;;;;;;1.80;99.90;;;;;;5114438;28;19923;-58
2022/03/11 06:47:38;;;;;;;;;;;1.80;99.90;;;;;;5113855;28;20391;-60
2022/03/11 06:50:04;;;;;;;;;;;1.90;99.90;;;;;;5112836;28;19975;-60
2022/03/11 06:52:31;;;;;;;;;;;2.00;99.90;;;;;;5114070;28;19924;-60
2022/03/11 06:54:56;;;;;;;;;;;2.00;99.90;;;;;;5114182;28;20340;-60
2022/03/11 06:57:22;;;;;;;;;;;2.10;99.90;;;;;;5113318;28;19924;-59
2022/03/11 06:59:48;;;;;;;;;;;2.10;99.90;;;;;;5114016;28;20374;-58
2022/03/11 07:02:14;;;;;;;;;;;2.20;99.90;;;;;;5110335;28;20295;-58
2022/03/11 07:04:40;;;;;;;;;;;2.20;99.90;;;;;;5112733;28;19935;-58
2022/03/11 07:07:06;;;;;;;;;;;2.30;99.90;;;;;;5113694;28;20014;-58
2022/03/11 07:09:32;;;;;;;;;;;2.40;99.90;;;;;;5110365;28;19928;-58
2022/03/11 07:12:00;;;;;;;;;;;2.40;99.90;;;;;;5111750;28;19938;-58
2022/03/11 07:14:27;;;;;;;;;;;2.50;99.90;;;;;;5112777;28;19924;-59
2022/03/11 07:16:56;;;;;;;;;;;2.60;99.90;;;;;;5093705;28;19976;-58
2022/03/11 07:19:22;;;;;;;;;;;2.70;99.90;;;;;;5113791;28;19986;-58
2022/03/11 07:21:48;;;;;;;;;;;2.80;99.90;;;;;;5113196;28;19924;-59
2022/03/11 07:24:13;;;;;;;;;;;2.90;99.90;;;;;;5111651;28;20001;-58
2022/03/11 07:26:39;;;;;;;;;;;3.00;99.90;;;;;;5113568;28;19928;-58
2022/03/11 07:29:05;;;;;;;;;;;3.10;99.90;;;;;;5111857;28;20089;-59
2022/03/11 07:31:30;;;;;;;;;;;3.10;99.90;;;;;;5111215;28;19923;-59
2022/03/11 07:33:56;;;;;;;;;;;3.30;99.90;;;;;;5110855;28;20274;-58
2022/03/11 07:36:22;;;;;;;;;;;3.40;99.90;;;;;;5112481;28;19920;-58
2022/03/11 07:38:48;;;;;;;;;;;3.40;99.90;;;;;;5111634;28;19931;-59
2022/03/11 07:41:14;;;;;;;;;;;3.50;99.90;;;;;;5110206;28;19977;-58
2022/03/11 07:43:44;;;;;;;;;;;3.60;99.90;;;;;;5112655;28;19920;-59
2022/03/11 07:46:11;;;;;;;;;;;3.70;99.90;;;;;;5105092;28;19931;-58
2022/03/11 07:48:36;;;;;;;;;;;3.80;99.90;;;;;;5113249;28;20296;-58
2022/03/11 07:51:02;;;;;;;;;;;3.90;99.90;;;;;;5112711;28;20003;-58
2022/03/11 07:53:28;;;;;;;;;;;4.00;99.90;;;;;;5111224;28;19924;-58
2022/03/11 07:55:54;;;;;;;;;;;4.10;99.90;;;;;;5113378;28;19928;-58
2022/03/11 07:58:21;;;;;;;;;;;4.20;99.90;;;;;;5094332;28;19931;-58
2022/03/11 08:00:48;;;;;;;;;;;4.30;99.90;;;;;;5112190;28;20393;-58
2022/03/11 08:03:15;;;;;;;;;;;4.40;99.90;;;;;;5113257;28;19923;-59
2022/03/11 08:05:40;;;;;;;;;;;4.60;99.90;;;;;;5094848;28;19923;-59
2022/03/11 08:08:06;;;;;;;;;;;4.70;99.90;;;;;;5105409;28;20103;-58
2022/03/11 08:10:33;;;;;;;;;;;4.80;99.90;;;;;;5109935;28;19924;-58
2022/03/11 08:13:00;;;;;;;;;;;4.90;99.90;;;;;;5111426;28;19924;-60
2022/03/11 08:15:25;;;;;;;;;;;5.00;99.90;;;;;;5069932;28;20412;-59
2022/03/11 08:17:51;;;;;;;;;;;5.10;99.90;;;;;;5082554;28;19925;-59
2022/03/11 08:20:18;;;;;;;;;;;5.30;99.90;;;;;;5108550;28;19927;-59
2022/03/11 08:22:45;;;;;;;;;;;5.40;99.90;;;;;;5111778;28;19924;-59
2022/03/11 08:25:11;;;;;;;;;;;5.50;99.90;;;;;;5109936;28;20358;-59
2022/03/11 08:27:38;;;;;;;;;;;5.60;99.90;;;;;;5084491;28;20005;-59
2022/03/11 08:30:04;;;;;;;;;;;5.70;99.90;;;;;;5112403;28;19924;-59
2022/03/11 08:32:30;;;;;;;;;;;5.80;99.90;;;;;;5090209;28;19924;-59
2022/03/11 08:34:58;;;;;;;;;;;6.00;99.90;;;;;;5098227;28;19932;-59
2022/03/11 08:37:23;;;;;;;;;;;6.10;99.90;;;;;;5092606;28;20024;-59
2022/03/11 08:39:51;;;;;;;;;;;6.20;99.90;;;;;;5074119;28;19920;-59
2022/03/11 08:42:17;;;;;;;;;;;6.30;99.90;;;;;;5070641;28;19924;-59
2022/03/11 08:44:43;;;;;;;;;;;6.40;99.90;;;;;;5097405;28;19967;-60
2022/03/11 08:47:08;;;;;;;;;;;6.50;99.90;;;;;;5097438;28;19919;-59
2022/03/11 08:49:36;;;;;;;;;;;6.60;99.90;;;;;;5115327;28;19932;-60
2022/03/11 08:52:01;;;;;;;;;;;6.70;99.90;;;;;;5112667;28;19977;-59
2022/03/11 08:54:27;;;;;;;;;;;6.80;99.90;;;;;;5116235;28;19930;-60
2022/03/11 08:56:54;;;;;;;;;;;7.00;99.90;;;;;;5116020;28;19979;-60
2022/03/11 08:59:19;;;;;;;;;;;7.00;99.90;;;;;;5116063;28;20320;-60
2022/03/11 09:01:45;;;;;;;;;;;7.20;99.90;;;;;;5094345;28;19938;-59
2022/03/11 09:04:11;;;;;;;;;;;7.30;99.90;;;;;;5106219;28;19978;-60
2022/03/11 09:06:36;;;;;;;;;;;7.40;99.70;;;;;;5110597;28;19939;-60
2022/03/11 09:09:02;;;;;;;;;;;7.50;99.90;;;;;;5113942;28;20357;-60
2022/03/11 09:11:28;;;;;;;;;;;7.60;99.20;;;;;;5114405;28;19924;-59
2022/03/11 09:13:54;;;;;;;;;;;7.60;98.90;;;;;;5115468;28;20318;-59
2022/03/11 09:16:19;;;;;;;;;;;7.70;97.90;;;;;;5114747;28;20289;-59
2022/03/11 09:18:45;;;;;;;;;;;7.80;97.50;;;;;;5114497;28;19981;-60
2022/03/11 09:21:12;;;;;;;;;;;7.90;96.80;;;;;;5097540;28;19927;-60
2022/03/11 09:23:39;;;;;;;;;;;7.90;97.20;;;;;;5113737;28;20444;-59
2022/03/11 09:26:05;;;;;;;;;;;8.10;97.20;;;;;;5104282;28;20377;-60
2022/03/11 09:28:31;;;;;;;;;;;;;;;;;;5114444;28;20006;-60
2022/03/11 09:30:57;;;;;;;;;;;8.20;95.30;;;;;;5114059;28;20422;-60
2022/03/11 09:33:23;;;;;;;;;;;8.30;95.90;;;;;;5115662;28;19930;-60
2022/03/11 09:35:49;;;;;;;;;;;8.30;93.50;;;;;;5112638;28;19923;-60
2022/03/11 09:38:15;;;;;;;;;;;8.40;94.90;;;;;;5114189;28;19924;-60
2022/03/11 09:40:43;;;;;;;;;;;8.50;93.30;;;;;;5115780;28;20324;-60
2022/03/11 09:43:10;;;;;;;;;;;8.60;93.70;;;;;;5115488;28;20101;-60
2022/03/11 09:45:36;;;;;;;;;;;8.70;93.10;;;;;;5092583;28;20026;-60
2022/03/11 09:48:02;;;;;;;;;;;8.80;91.20;;;;;;5096825;28;20018;-60
2022/03/11 09:50:28;;;;;;;;;;;8.80;91.10;;;;;;5115250;28;19924;-60
2022/03/11 09:52:55;;;;;;;;;;;8.90;91.10;;;;;;5112659;28;19923;-59
2022/03/11 09:55:20;;;;;;;;;;;9.00;90.60;;;;;;5078078;28;19953;-60
2022/03/11 09:57:46;;;;;;;;;;;9.20;88.90;;;;;;5094534;28;20373;-60
2022/03/11 10:00:12;;;;;;;;;;;9.20;89.90;;;;;;5092508;28;20330;-60
2022/03/11 10:02:40;;;;;;;;;;;9.30;86.70;;;;;;5102307;28;19931;-61
2022/03/11 10:05:06;;;;;;;;;;;9.50;84.40;;;;;;5115312;28;19969;-60
2022/03/11 10:07:32;;;;;;;;;;;9.50;80.00;;;;;;5095688;28;19957;-61
2022/03/11 10:10:10;;;;;;;;;;;9.60;80.10;;;;;;5114781;28;20018;-60
2022/03/11 10:12:39;;;;;;;;;;;9.70;80.60;;;;;;5110482;28;20023;-60
2022/03/11 10:15:07;;;;;;;;;;;9.80;80.50;;;;;;5113809;28;21381;-60
2022/03/11 10:17:42;;;;;;;;;;;10.00;75.20;;;;;;5114868;28;20589;-60
2022/03/11 10:20:09;;;;;;;;;;;10.30;73.70;;;;;;5094602;28;19931;-60
2022/03/11 10:22:36;;;;;;;;;;;10.80;74.30;;;;;;5096163;28;19927;-60
2022/03/11 10:25:08;;;;;;;;;;;11.40;70.40;;;;;;5102153;28;20354;-61
2022/03/11 10:27:39;;;;;;;;;;;11.80;64.90;;;;;;5112499;28;19923;-60
2022/03/11 10:30:15;;;;;;;;;;;12.60;58.80;;;;;;5106457;28;19924;-59
2022/03/11 10:32:48;;;;;;;;;;;12.60;58.80;;;;;;5115000;28;20384;-60
2022/03/11 10:35:18;;;;;;;;;;;13.00;58.30;;;;;;5114215;28;19972;-60
2022/03/11 10:37:55;;;;;;;;;;;13.20;57.60;;;;;;5113798;28;19969;-61
2022/03/11 10:40:21;;;;;;;;;;;13.30;56.30;;;;;;5096180;28;19927;-59
2022/03/11 10:42:46;;;;;;;;;;;13.60;54.60;;;;;;5113969;28;19923;-60
2022/03/11 10:45:13;;;;;;;;;;;13.80;53.70;;;;;;5095735;28;20366;-60
2022/03/11 10:47:40;;;;;;;;;;;13.90;53.00;;;;;;5113490;28;19930;-60
2022/03/11 10:50:07;;;;;;;;;;;14.10;52.70;;;;;;5114134;28;19927;-60
2022/03/11 10:52:36;;;;;;;;;;;14.00;51.90;;;;;;5112537;28;19963;-60
2022/03/11 10:55:17;;;;;;;;;;;13.90;50.90;;;;;;5095250;28;19982;-61
2022/03/11 10:57:43;;;;;;;;;;;13.90;52.10;;;;;;5092837;28;19924;-61
2022/03/11 11:00:19;;;;;;;;;;;14.00;52.60;;;;;;5094233;28;19986;-60
2022/03/11 11:02:46;;;;;;;;;;;14.00;52.20;;;;;;5094709;28;19932;-60
2022/03/11 11:05:13;;;;;;;;;;;13.90;51.30;;;;;;5112318;28;19931;-60
2022/03/11 11:07:40;;;;;;;;;;;13.80;51.10;;;;;;5094980;28;19931;-61
2022/03/11 11:10:06;;;;;;;;;;;13.70;51.00;;;;;;5094420;28;19928;-60
2022/03/11 11:12:32;;;;;;;;;;;13.80;52.10;;;;;;5113407;28;20375;-60
2022/03/11 11:14:58;;;;;;;;;;;13.80;51.40;;;;;;5094214;28;20333;-61
2022/03/11 11:17:25;;;;;;;;;;;13.90;51.70;;;;;;5092501;28;19924;-61
2022/03/11 11:19:53;;;;;;;;;;;14.00;50.90;;;;;;5093499;28;20366;-60
2022/03/11 11:22:19;;;;;;;;;;;14.00;50.90;;;;;;5112611;28;19930;-60
2022/03/11 11:24:45;;;;;;;;;;;14.00;50.90;;;;;;5112672;28;19924;-61
2022/03/11 11:27:10;;;;;;;;;;;14.00;50.50;;;;;;5095182;28;19924;-60
2022/03/11 11:29:37;;;;;;;;;;;14.00;51.80;;;;;;5074026;28;19977;-60
2022/03/11 11:32:05;;;;;;;;;;;13.90;51.40;;;;;;5057560;28;19928;-60
2022/03/11 11:34:34;;;;;;;;;;;14.00;51.10;;;;;;5092978;28;20270;-60
2022/03/11 11:37:00;;;;;;;;;;;14.10;51.10;;;;;;5082395;28;20390;-60
2022/03/11 11:39:27;;;;;;;;;;;14.10;51.80;;;;;;5112248;28;19931;-60
2022/03/11 11:41:54;;;;;;;;;;;14.10;52.70;;;;;;5112919;28;20011;-61
2022/03/11 11:44:30;;;;;;;;;;;14.10;51.00;;;;;;5111991;28;20333;-60
2022/03/11 11:47:06;;;;;;;;;;;14.10;51.50;;;;;;5112389;28;19927;-61
2022/03/11 11:49:42;;;;;;;;;;;14.00;51.30;;;;;;5112692;28;19924;-60
2022/03/11 11:52:11;;;;;;;;;;;13.80;51.80;;;;;;5112103;28;19969;-61
2022/03/11 11:54:39;;;;;;;;;;;13.60;52.00;;;;;;5113397;28;20374;-60
2022/03/11 11:57:05;;;;;;;;;;;13.40;52.00;;;;;;5112084;28;19969;-60
2022/03/11 11:59:35;;;;;;;;;;;13.30;52.20;;;;;;5111902;28;20006;-60
2022/03/11 12:02:02;;;;;;;;;;;13.10;52.90;;;;;;5112877;28;19924;-61
2022/03/11 12:04:28;;;;;;;;;;;12.90;53.60;;;;;;5113559;28;20371;-61
2022/03/11 12:06:55;;;;;;;;;;;12.80;53.20;;;;;;5093277;28;19931;-60
2022/03/11 12:09:39;;;;;;;;;;;12.90;53.40;;;;;;5113471;28;19924;-60
2022/03/11 12:12:05;;;;;;;;;;;12.80;52.90;;;;;;5112196;28;20290;-60
2022/03/11 12:14:32;;;;;;;;;;;12.80;53.60;;;;;;5112974;28;19966;-59
2022/03/11 12:17:04;;;;;;;;;;;12.80;54.50;;;;;;5096488;28;19968;-60
2022/03/11 12:19:35;;;;;;;;;;;13.00;54.40;;;;;;5097136;28;19928;-60
2022/03/11 12:22:20;;;;;;;;;;;13.10;53.30;;;;;;5082155;28;19924;-59
2022/03/11 12:24:56;;;;;;;;;;;13.20;52.50;;;;;;5116922;28;19924;-60
2022/03/11 12:27:40;;;;;;;;;;;13.30;52.90;;;;;;5115703;28;20409;-60
2022/03/11 12:30:06;;;;;;;;;;;13.60;52.30;;;;;;5117316;28;19981;-60
2022/03/11 12:32:32;;;;;;;;;;;13.80;52.50;;;;;;5098414;28;19923;-60
2022/03/11 12:34:58;;;;;;;;;;;13.80;51.90;;;;;;5115923;28;19934;-61
2022/03/11 12:37:26;;;;;;;;;;;13.70;51.00;;;;;;5098633;28;19923;-60
2022/03/11 12:39:51;;;;;;;;;;;13.70;52.20;;;;;;5113117;28;20320;-60
2022/03/11 12:42:17;;;;;;;;;;;13.80;51.50;;;;;;5112366;28;19943;-60
2022/03/11 12:44:46;;;;;;;;;;;13.90;51.60;;;;;;5116271;28;20293;-61
2022/03/11 12:47:16;;;;;;;;;;;14.00;50.70;;;;;;5102518;28;19924;-61
2022/03/11 12:49:41;;;;;;;;;;;14.10;50.60;;;;;;5102083;28;20377;-60
2022/03/11 12:52:17;;;;;;;;;;;14.10;49.70;;;;;;5115464;28;19938;-60
2022/03/11 12:54:43;;;;;;;;;;;14.20;49.60;;;;;;5115944;28;19969;-61
2022/03/11 12:57:11;;;;;;;;;;;14.10;50.00;;;;;;5115875;28;19924;-61
2022/03/11 12:59:37;;;;;;;;;;;13.90;50.00;;;;;;5115523;28;20373;-60
2022/03/11 13:02:04;;;;;;;;;;;13.80;50.40;;;;;;5102922;28;19946;-61
2022/03/11 13:04:39;;;;;;;;;;;13.90;51.10;;;;;;5095591;28;19947;-61
2022/03/11 13:07:05;;;;;;;;;;;14.10;50.20;;;;;;5095731;28;19930;-60
2022/03/11 13:09:30;;;;;;;;;;;14.20;49.30;;;;;;5108637;28;20286;-61
2022/03/11 13:12:16;;;;;;;;;;;14.30;48.60;;;;;;5097152;28;19928;-60
2022/03/11 13:14:42;;;;;;;;;;;14.50;48.00;;;;;;5097939;28;19924;-61
2022/03/11 13:17:07;;;;;;;;;;;14.60;48.30;;;;;;5114849;28;20345;-61
2022/03/11 13:19:33;;;;;;;;;;;14.80;46.90;;;;;;5115210;28;19927;-60
2022/03/11 13:21:58;;;;;;;;;;;14.90;46.80;;;;;;5097736;28;19935;-60
2022/03/11 13:24:24;;;;;;;;;;;15.00;46.10;;;;;;5114998;28;19946;-60
2022/03/11 13:27:04;;;;;;;;;;;15.20;46.00;;;;;;5109322;28;20270;-61
2022/03/11 13:29:29;;;;;;;;;;;15.40;45.90;;;;;;5095958;28;19930;-61
2022/03/11 13:31:57;;;;;;;;;;;15.40;45.30;;;;;;5115848;28;19928;-61
2022/03/11 13:34:26;;;;;;;;;;;15.30;45.50;;;;;;5114380;28;19976;-60
2022/03/11 13:36:52;;;;;;;;;;;15.40;45.40;;;;;;5107332;28;20378;-61
2022/03/11 13:39:19;;;;;;;;;;;15.40;45.60;;;;;;5077378;28;20019;-61
2022/03/11 13:41:47;;;;;;;;;;;15.50;44.40;;;;;;5094499;28;20302;-60
2022/03/11 13:44:14;;;;;;;;;;;15.60;44.20;;;;;;5084393;28;19924;-61
2022/03/11 13:46:41;;;;;;;;;;;15.90;44.30;;;;;;5115162;28;19924;-61
2022/03/11 13:49:08;;;;;;;;;;;16.20;43.40;;;;;;5114736;28;19924;-61
2022/03/11 13:51:39;;;;;;;;;;;16.30;43.00;;;;;;5114556;28;19930;-61
2022/03/11 13:54:04;;;;;;;;;;;16.30;41.90;;;;;;5114028;28;19932;-61
2022/03/11 13:56:37;;;;;;;;;;;16.20;44.00;;;;;;5096439;28;20408;-61
2022/03/11 13:59:08;;;;;;;;;;;16.00;42.80;;;;;;5114751;28;19931;-61
2022/03/11 14:01:38;;;;;;;;;;;16.00;43.40;;;;;;5113046;28;19930;-60
2022/03/11 14:04:22;;;;;;;;;;;15.90;42.70;;;;;;5106628;28;20399;-61
2022/03/11 14:06:48;;;;;;;;;;;15.80;42.60;;;;;;5096369;28;20294;-61
2022/03/11 14:09:14;;;;;;;;;;;15.50;43.60;;;;;;5096498;28;20305;-61
2022/03/11 14:11:41;;;;;;;;;;;15.30;43.80;;;;;;5111757;28;20010;-60
2022/03/11 14:14:23;;;;;;;;;;;15.00;45.10;;;;;;5095746;28;19930;-61
2022/03/11 14:16:53;;;;;;;;;;;14.80;45.50;;;;;;5114088;28;19967;-60
2022/03/11 14:19:18;;;;;;;;;;;14.90;45.40;;;;;;5094484;28;19971;-61
2022/03/11 14:21:44;;;;;;;;;;;14.90;43.80;;;;;;5114396;28;19966;-61
2022/03/11 14:24:10;;;;;;;;;;;15.10;43.70;;;;;;5114905;28;20366;-60
2022/03/11 14:26:35;;;;;;;;;;;15.30;43.00;;;;;;5099937;28;20322;-61